createdAt,value
2022-10-09T00:01:25.416Z,19.48
2022-10-09T00:03:55.355Z,21.17
2022-10-09T00:06:32.869Z,17.33
2022-10-09T00:09:02.280Z,21.02
2022-10-09T00:11:31.671Z,17.70
2022-10-09T00:14:00.534Z,22.17
2022-10-09T00:16:29.548Z,17.17
2022-10-09T00:18:58.394Z,19.73
2022-10-09T00:21:29.009Z,18.73
2022-10-09T00:23:58.916Z,18.70
2022-10-09T00:26:27.808Z,16.55
2022-10-09T00:28:56.809Z,22.08
2022-10-09T00:31:25.489Z,18.77
2022-10-09T00:33:53.535Z,18.77
2022-10-09T00:36:24.310Z,16.35
2022-10-09T00:38:54.242Z,18.08
2022-10-09T00:41:27.869Z,14.07
2022-10-09T00:44:34.494Z,16.65
2022-10-09T00:47:02.692Z,17.85
2022-10-09T00:49:34.033Z,17.38
2022-10-09T00:52:07.011Z,9.50
2022-10-09T00:54:38.614Z,14.90
2022-10-09T00:57:07.639Z,14.88
2022-10-09T00:59:36.992Z,15.95
2022-10-09T01:02:05.902Z,10.85
2022-10-09T01:04:34.141Z,11.88
2022-10-09T01:07:17.228Z,12.55
2022-10-09T01:10:09.660Z,17.70
2022-10-09T01:13:07.033Z,15.13
2022-10-09T01:15:57.143Z,11.27
2022-10-09T01:18:34.238Z,18.02
2022-10-09T01:21:10.949Z,15.65
2022-10-09T01:24:03.590Z,15.77
2022-10-09T01:26:50.973Z,17.40
2022-10-09T01:29:21.951Z,20.58
2022-10-09T01:31:52.262Z,25.90
2022-10-09T01:34:21.671Z,32.47
2022-10-09T01:36:51.213Z,27.27
2022-10-09T01:39:23.151Z,26.52
2022-10-09T01:44:39.931Z,33.92
2022-10-09T01:47:11.079Z,27.88
2022-10-09T01:49:53.509Z,28.13
2022-10-09T01:52:27.538Z,25.33
2022-10-09T01:55:04.498Z,27.00
2022-10-09T01:58:16.868Z,27.88
2022-10-09T02:01:01.394Z,33.50
2022-10-09T02:03:31.744Z,38.28
2022-10-09T02:06:01.047Z,32.17
2022-10-09T02:08:30.574Z,35.20
2022-10-09T02:11:01.063Z,45.35
2022-10-09T02:13:30.046Z,45.05
2022-10-09T02:16:11.457Z,35.22
2022-10-09T02:18:46.329Z,36.70
2022-10-09T02:21:19.122Z,36.92
2022-10-09T02:23:50.174Z,37.45
2022-10-09T02:26:19.278Z,33.75
2022-10-09T02:28:47.831Z,30.58
2022-10-09T02:31:26.477Z,30.05
2022-10-09T02:34:03.875Z,29.30
2022-10-09T02:36:32.651Z,34.85
2022-10-09T02:39:01.253Z,31.17
2022-10-09T02:41:29.538Z,34.13
2022-10-09T02:43:57.677Z,34.55
2022-10-09T02:46:26.041Z,32.90
2022-10-09T02:48:54.349Z,39.45
2022-10-09T02:51:23.218Z,37.63
2022-10-09T02:53:53.674Z,40.60
2022-10-09T02:56:22.921Z,39.90
2022-10-09T02:58:51.190Z,39.25
2022-10-09T03:01:20.176Z,37.35
2022-10-09T03:03:48.498Z,43.40
2022-10-09T03:06:22.665Z,37.47
2022-10-09T03:08:52.495Z,40.42
2022-10-09T03:11:22.228Z,39.08
2022-10-09T03:13:51.012Z,41.63
2022-10-09T03:16:26.790Z,37.95
2022-10-09T03:18:56.551Z,49.38
2022-10-09T03:21:27.157Z,48.58
2022-10-09T03:23:56.134Z,43.78
2022-10-09T03:26:26.950Z,42.70
2022-10-09T03:28:55.897Z,46.60
2022-10-09T03:31:51.058Z,54.00
2022-10-09T03:34:15.190Z,45.30
2022-10-09T03:36:43.302Z,43.58
2022-10-09T03:39:11.490Z,44.40
2022-10-09T03:41:39.720Z,49.17
2022-10-09T03:44:07.895Z,43.97
2022-10-09T03:46:36.178Z,39.08
2022-10-09T03:49:04.553Z,37.72
2022-10-09T03:51:32.652Z,39.03
2022-10-09T03:54:00.781Z,35.90
2022-10-09T03:56:28.989Z,41.88
2022-10-09T03:58:57.228Z,35.72
2022-10-09T04:01:25.355Z,45.78
2022-10-09T04:03:53.582Z,35.95
2022-10-09T04:06:21.727Z,32.40
2022-10-09T04:08:49.870Z,38.90
2022-10-09T04:11:18.077Z,43.03
2022-10-09T04:13:46.179Z,41.53
2022-10-09T04:16:14.354Z,43.38
2022-10-09T04:18:44.462Z,38.58
2022-10-09T04:21:12.619Z,35.17
2022-10-09T04:23:40.866Z,30.75
2022-10-09T04:26:11.276Z,33.33
2022-10-09T04:28:39.884Z,29.35
2022-10-09T04:31:08.178Z,33.75
2022-10-09T04:33:36.462Z,38.67
2022-10-09T04:36:04.786Z,37.17
2022-10-09T04:38:33.253Z,37.00
2022-10-09T04:41:04.282Z,34.00
2022-10-09T04:43:33.485Z,55.08
2022-10-09T04:46:06.306Z,68.07
2022-10-09T04:48:45.639Z,67.65
2022-10-09T04:51:14.566Z,63.97
2022-10-09T04:53:43.397Z,70.03
2022-10-09T04:56:14.471Z,67.30
2022-10-09T04:58:43.137Z,54.17
2022-10-09T05:01:14.606Z,66.35
2022-10-09T05:03:43.336Z,59.97
2022-10-09T05:06:14.168Z,65.28
2022-10-09T05:08:43.068Z,51.92
2022-10-09T05:11:17.742Z,53.40
2022-10-09T05:13:48.582Z,58.40
2022-10-09T05:16:20.442Z,59.80
2022-10-09T05:18:51.317Z,53.58
2022-10-09T05:21:19.814Z,47.67
2022-10-09T05:23:48.020Z,50.28
2022-10-09T05:26:19.332Z,45.45
2022-10-09T05:28:48.020Z,41.30
2022-10-09T05:31:26.099Z,41.30
2022-10-09T05:33:55.666Z,38.85
2022-10-09T05:36:23.905Z,36.17
2022-10-09T05:38:52.048Z,36.53
2022-10-09T05:41:20.346Z,34.85
2022-10-09T05:43:50.130Z,28.88
2022-10-09T05:46:23.782Z,37.00
2022-10-09T05:48:57.467Z,30.85
2022-10-09T05:51:29.045Z,29.35
2022-10-09T05:53:57.577Z,37.53
2022-10-09T05:56:28.349Z,34.42
2022-10-09T05:59:00.696Z,27.48
2022-10-09T06:01:32.375Z,31.40
2022-10-09T06:04:02.147Z,35.25
2022-10-09T06:06:33.786Z,32.60
2022-10-09T06:09:02.055Z,27.45
2022-10-09T06:11:35.648Z,28.50
2022-10-09T06:14:06.927Z,23.10
2022-10-09T06:16:41.841Z,21.40
2022-10-09T06:19:14.249Z,28.00
2022-10-09T06:21:42.618Z,33.05
2022-10-09T06:24:18.506Z,34.83
2022-10-09T06:26:46.762Z,33.20
2022-10-09T06:29:14.801Z,36.00
2022-10-09T06:31:42.936Z,34.55
2022-10-09T06:34:11.286Z,29.13
2022-10-09T06:36:39.554Z,32.47
2022-10-09T06:39:08.323Z,36.88
2022-10-09T06:41:36.929Z,38.53
2022-10-09T06:44:23.565Z,42.00
2022-10-09T06:46:51.853Z,33.25
2022-10-09T06:49:19.877Z,41.80
2022-10-09T06:51:48.129Z,39.05
2022-10-09T06:54:16.888Z,43.97
2022-10-09T06:56:45.178Z,45.80
2022-10-09T06:59:13.781Z,44.10
2022-10-09T07:01:42.162Z,45.28
2022-10-09T07:04:13.602Z,38.95
2022-10-09T07:06:45.209Z,45.05
2022-10-09T07:09:15.151Z,31.75
2022-10-09T07:11:46.285Z,33.22
2022-10-09T07:14:15.023Z,39.33
2022-10-09T07:16:45.667Z,34.55
2022-10-09T07:19:15.487Z,30.50
2022-10-09T07:21:47.491Z,33.28
2022-10-09T07:24:16.133Z,36.92
2022-10-09T07:26:46.515Z,37.28
2022-10-09T07:29:17.526Z,28.95
2022-10-09T07:31:46.283Z,29.33
2022-10-09T07:34:14.318Z,31.20
2022-10-09T07:36:42.564Z,34.70
2022-10-09T07:39:10.811Z,28.42
2022-10-09T07:41:39.003Z,31.83
2022-10-09T07:44:06.980Z,39.30
2022-10-09T07:46:35.313Z,35.40
2022-10-09T07:49:04.626Z,33.97
2022-10-09T07:51:33.569Z,32.42
2022-10-09T07:54:01.698Z,33.88
2022-10-09T07:56:32.632Z,33.20
2022-10-09T07:59:04.242Z,24.85
2022-10-09T08:01:34.430Z,27.45
2022-10-09T08:04:03.389Z,27.77
2022-10-09T08:06:32.047Z,31.52
2022-10-09T08:09:01.777Z,33.17
2022-10-09T08:11:30.968Z,31.58
2022-10-09T08:13:59.851Z,23.20
2022-10-09T08:16:28.854Z,17.70
2022-10-09T08:18:58.724Z,23.58
2022-10-09T08:21:27.707Z,19.60
2022-10-09T08:23:57.910Z,17.92
2022-10-09T08:26:28.356Z,18.85
2022-10-09T08:29:02.156Z,20.50
2022-10-09T08:31:31.303Z,22.00
2022-10-09T08:34:01.230Z,15.02
2022-10-09T08:36:30.465Z,14.48
2022-10-09T08:38:59.123Z,17.80
2022-10-09T08:41:44.723Z,15.25
2022-10-09T08:44:12.944Z,17.10
2022-10-09T08:46:50.235Z,22.55
2022-10-09T08:49:25.256Z,17.63
2022-10-09T08:51:55.063Z,17.55
2022-10-09T08:54:34.068Z,16.40
2022-10-09T08:57:05.316Z,20.13
2022-10-09T08:59:33.623Z,24.60
2022-10-09T09:02:32.181Z,24.35
2022-10-09T09:05:15.815Z,20.10
2022-10-09T09:08:09.897Z,18.98
2022-10-09T09:10:48.183Z,20.50
2022-10-09T09:13:40.596Z,22.67
2022-10-09T09:16:30.180Z,15.15
2022-10-09T09:19:29.026Z,18.65
2022-10-09T09:21:58.833Z,15.63
2022-10-09T09:24:40.086Z,18.55
2022-10-09T09:27:20.928Z,15.00
2022-10-09T09:30:15.732Z,24.55
2022-10-09T09:32:51.950Z,13.77
2022-10-09T09:35:50.616Z,11.20
2022-10-09T09:38:19.074Z,9.95
2022-10-09T09:40:47.748Z,11.23
2022-10-09T09:43:22.124Z,19.02
2022-10-09T09:45:56.982Z,21.35
2022-10-09T09:48:44.052Z,24.92
2022-10-09T09:51:32.435Z,16.55
2022-10-09T09:54:15.826Z,21.17
2022-10-09T09:59:42.148Z,29.23
2022-10-09T10:02:18.780Z,22.73
2022-10-09T10:05:00.265Z,22.58
2022-10-09T10:07:36.767Z,17.13
2022-10-09T10:10:19.737Z,9.60
2022-10-09T10:12:56.527Z,11.18
2022-10-09T10:15:30.062Z,13.32
2022-10-09T10:18:13.349Z,10.23
2022-10-09T10:20:49.290Z,8.65
2022-10-09T10:23:43.726Z,16.02
2022-10-09T10:26:31.504Z,10.88
2022-10-09T10:29:02.569Z,19.70
2022-10-09T10:31:46.736Z,15.90
2022-10-09T10:34:29.977Z,14.77
2022-10-09T10:37:24.615Z,15.25
2022-10-09T10:40:20.883Z,13.80
2022-10-09T10:42:58.635Z,10.68
2022-10-09T10:46:04.656Z,12.18
2022-10-09T10:48:40.047Z,13.27
2022-10-09T10:51:14.186Z,12.73
2022-10-09T10:53:57.100Z,8.35
2022-10-09T10:56:45.420Z,11.02
2022-10-09T10:59:19.419Z,19.52
2022-10-09T11:02:08.526Z,25.40
2022-10-09T11:04:54.945Z,19.42
2022-10-09T11:07:45.644Z,21.55
2022-10-09T11:10:29.899Z,37.53
2022-10-09T11:13:20.756Z,21.00
2022-10-09T11:15:53.689Z,19.52
2022-10-09T11:18:30.494Z,11.68
2022-10-09T11:21:16.165Z,13.57
2022-10-09T11:23:56.599Z,15.25
2022-10-09T11:26:28.432Z,18.55
2022-10-09T11:29:23.999Z,12.43
2022-10-09T11:32:23.764Z,29.77
2022-10-09T11:35:22.533Z,13.40
2022-10-09T11:38:02.619Z,17.45
2022-10-09T11:40:43.170Z,19.27
2022-10-09T11:43:17.296Z,14.00
2022-10-09T11:46:07.931Z,11.45
2022-10-09T11:48:53.699Z,10.60
2022-10-09T11:52:01.275Z,15.40
2022-10-09T11:54:30.241Z,13.02
2022-10-09T11:56:59.621Z,17.55
2022-10-09T11:59:33.610Z,14.40
2022-10-09T12:02:16.641Z,14.95
2022-10-09T12:04:54.595Z,10.77
2022-10-09T12:07:42.176Z,17.67
2022-10-09T12:10:32.119Z,12.35
2022-10-09T12:13:06.344Z,11.18
2022-10-09T12:15:49.527Z,17.67
2022-10-09T12:18:25.159Z,8.52
2022-10-09T12:20:56.340Z,13.00
2022-10-09T12:23:28.023Z,19.20
2022-10-09T12:28:28.224Z,8.13
2022-10-09T12:30:58.244Z,23.45
2022-10-09T12:33:46.426Z,15.98
2022-10-09T12:36:22.220Z,56.20
2022-10-09T12:38:50.539Z,32.28
2022-10-09T12:41:23.059Z,7.90
2022-10-09T12:43:53.652Z,7.65
2022-10-09T12:46:32.348Z,10.05
2022-10-09T12:49:02.038Z,7.65
2022-10-09T12:51:33.297Z,12.88
2022-10-09T12:54:08.019Z,11.95
2022-10-09T12:56:39.323Z,6.25
2022-10-09T12:59:11.587Z,9.63
2022-10-09T13:01:42.806Z,7.70
2022-10-09T13:04:32.426Z,7.07
2022-10-09T13:07:06.308Z,5.15
2022-10-09T13:09:40.024Z,11.55
2022-10-09T13:12:10.061Z,12.40
2022-10-09T13:14:52.575Z,11.63
2022-10-09T13:17:34.509Z,55.97
2022-10-09T13:20:27.418Z,6.38
2022-10-09T13:22:57.153Z,7.80
2022-10-09T13:25:40.612Z,9.15
2022-10-09T13:28:12.506Z,8.75
2022-10-09T13:33:15.194Z,25.75
2022-10-09T13:35:43.839Z,8.02
2022-10-09T13:38:15.793Z,5.05
2022-10-09T13:43:26.416Z,9.02
2022-10-09T13:45:54.916Z,5.68
2022-10-09T13:48:23.459Z,9.07
2022-10-09T13:50:51.849Z,9.27
2022-10-09T13:53:19.994Z,5.25
2022-10-09T13:55:48.110Z,5.38
2022-10-09T13:58:16.258Z,9.80
2022-10-09T14:00:46.228Z,9.23
2022-10-09T14:03:14.575Z,7.50
2022-10-09T14:05:43.573Z,7.63
2022-10-09T14:08:12.433Z,11.48
2022-10-09T14:10:44.174Z,5.38
2022-10-09T14:13:12.473Z,10.05
2022-10-09T14:15:41.600Z,4.15
2022-10-09T14:18:10.134Z,10.10
2022-10-09T14:20:38.256Z,11.07
2022-10-09T14:23:06.519Z,5.75
2022-10-09T14:25:37.906Z,10.18
2022-10-09T14:28:06.386Z,7.15
2022-10-09T14:30:34.636Z,8.38
2022-10-09T14:33:02.672Z,9.65
2022-10-09T14:35:31.541Z,8.73
2022-10-09T14:37:59.985Z,19.45
2022-10-09T14:40:28.243Z,15.80
2022-10-09T14:42:56.346Z,12.75
2022-10-09T14:45:24.477Z,16.98
2022-10-09T14:47:52.596Z,15.57
2022-10-09T14:50:20.749Z,6.65
2022-10-09T14:52:49.036Z,6.65
2022-10-09T14:55:17.399Z,33.05
2022-10-09T14:57:45.537Z,7.32
2022-10-09T15:00:14.380Z,21.65
2022-10-09T15:05:15.542Z,20.33
2022-10-09T15:07:43.893Z,17.77
2022-10-09T15:10:12.038Z,27.30
2022-10-09T15:12:40.060Z,23.65
2022-10-09T15:15:08.855Z,14.88
2022-10-09T15:17:36.958Z,18.80
2022-10-09T15:20:05.274Z,21.40
2022-10-09T15:22:33.441Z,9.63
2022-10-09T15:25:01.577Z,13.70
2022-10-09T15:27:29.585Z,21.60
2022-10-09T15:29:57.916Z,22.48
2022-10-09T15:32:26.123Z,28.65
2022-10-09T15:34:54.372Z,9.32
2022-10-09T15:37:22.497Z,21.17
2022-10-09T15:39:50.635Z,22.02
2022-10-09T15:42:18.762Z,13.98
2022-10-09T15:44:46.985Z,10.35
2022-10-09T15:47:16.496Z,24.85
2022-10-09T15:49:46.562Z,30.23
2022-10-09T15:52:16.329Z,25.03
2022-10-09T15:54:44.408Z,18.17
2022-10-09T15:57:12.669Z,17.00
2022-10-09T15:59:40.932Z,8.27
2022-10-09T16:02:11.634Z,14.38
2022-10-09T16:04:40.067Z,22.20
2022-10-09T16:07:08.128Z,20.35
2022-10-09T16:09:37.572Z,9.32
2022-10-09T16:12:05.711Z,7.85
2022-10-09T16:14:33.926Z,10.80
2022-10-09T16:17:02.074Z,17.23
2022-10-09T16:19:30.346Z,18.95
2022-10-09T16:21:58.612Z,9.82
2022-10-09T16:24:26.723Z,13.98
2022-10-09T16:26:54.992Z,30.02
2022-10-09T16:29:23.059Z,19.27
2022-10-09T16:31:51.266Z,11.13
2022-10-09T16:34:19.482Z,8.45
2022-10-09T16:36:47.694Z,22.20
2022-10-09T16:39:15.756Z,6.00
2022-10-09T16:41:44.110Z,14.50
2022-10-09T16:44:14.384Z,18.25
2022-10-09T16:46:42.730Z,31.10
2022-10-09T16:49:19.973Z,39.95
2022-10-09T16:51:51.363Z,16.80
2022-10-09T16:54:19.532Z,12.75
2022-10-09T16:56:47.705Z,7.60
2022-10-09T16:59:16.014Z,18.25
2022-10-09T17:01:44.104Z,6.22
2022-10-09T17:04:13.282Z,37.35
2022-10-09T17:06:42.973Z,16.08
2022-10-09T17:09:14.156Z,18.58
2022-10-09T17:11:43.224Z,13.27
2022-10-09T17:14:11.552Z,48.92
2022-10-09T17:16:40.885Z,23.88
2022-10-09T17:19:09.318Z,46.95
2022-10-09T17:21:37.515Z,34.92
2022-10-09T17:24:06.697Z,10.32
2022-10-09T17:26:35.536Z,8.30
2022-10-09T17:29:03.961Z,5.68
2022-10-09T17:31:32.246Z,8.18
2022-10-09T17:34:04.552Z,23.67
2022-10-09T17:36:37.023Z,16.83
2022-10-09T17:39:06.864Z,18.08
2022-10-09T17:41:35.603Z,19.50
2022-10-09T17:44:04.439Z,9.98
2022-10-09T17:46:33.261Z,4.55
2022-10-09T17:49:01.521Z,13.57
2022-10-09T17:51:33.432Z,5.80
2022-10-09T17:54:06.935Z,13.65
2022-10-09T17:56:37.928Z,15.80
2022-10-09T17:59:06.220Z,15.65
2022-10-09T18:01:35.091Z,15.65
2022-10-09T18:04:03.887Z,17.83
2022-10-09T18:06:34.043Z,18.70
2022-10-09T18:09:02.997Z,15.20
2022-10-09T18:11:31.208Z,28.17
2022-10-09T18:13:59.490Z,18.90
2022-10-09T18:16:35.368Z,13.82
2022-10-09T18:19:10.571Z,31.75
2022-10-09T18:21:41.227Z,20.05
2022-10-09T18:24:09.542Z,7.15
2022-10-09T18:26:37.639Z,23.45
2022-10-09T18:29:06.304Z,38.60
2022-10-09T18:31:34.547Z,34.35
2022-10-09T18:34:02.634Z,21.65
2022-10-09T18:36:31.321Z,32.22
2022-10-09T18:39:04.343Z,29.35
2022-10-09T18:41:33.076Z,26.88
2022-10-09T18:44:01.729Z,10.13
2022-10-09T18:46:38.575Z,19.60
2022-10-09T18:49:10.004Z,19.88
2022-10-09T18:51:40.727Z,21.95
2022-10-09T18:54:12.289Z,16.13
2022-10-09T18:56:43.162Z,18.70
2022-10-09T18:59:15.376Z,28.65
2022-10-09T19:01:43.661Z,22.55
2022-10-09T19:04:11.994Z,29.30
2022-10-09T19:06:40.631Z,31.50
2022-10-09T19:09:08.921Z,15.40
2022-10-09T19:11:37.058Z,29.00
2022-10-09T19:14:06.024Z,51.53
2022-10-09T19:16:34.957Z,57.70
2022-10-09T19:19:03.326Z,27.63
2022-10-09T19:21:31.789Z,29.13
2022-10-09T19:24:00.114Z,61.78
2022-10-09T19:26:28.260Z,63.05
2022-10-09T19:28:57.234Z,60.13
2022-10-09T19:31:25.795Z,44.42
2022-10-09T19:33:54.026Z,31.30
2022-10-09T19:36:22.290Z,40.92
2022-10-09T19:38:50.310Z,46.35
2022-10-09T19:41:18.511Z,41.85
2022-10-09T19:43:46.838Z,45.65
2022-10-09T19:46:17.972Z,79.28
2022-10-09T19:48:46.799Z,52.72
2022-10-09T19:51:18.203Z,44.38
2022-10-09T19:53:46.787Z,54.53
2022-10-09T19:56:17.756Z,38.65
2022-10-09T19:58:48.121Z,45.70
2022-10-09T20:01:21.332Z,36.28
2022-10-09T20:03:54.884Z,43.25
2022-10-09T20:06:23.213Z,33.08
2022-10-09T20:08:51.549Z,32.25
2022-10-09T20:11:20.027Z,28.02
2022-10-09T20:13:53.362Z,21.77
2022-10-09T20:16:25.226Z,58.50
2022-10-09T20:18:55.307Z,45.00
2022-10-09T20:21:23.580Z,58.17
2022-10-09T20:23:52.461Z,52.95
2022-10-09T20:26:22.425Z,30.48
2022-10-09T20:28:51.971Z,20.83
2022-10-09T20:31:23.170Z,18.48
2022-10-09T20:33:51.917Z,46.05
2022-10-09T20:36:25.123Z,46.60
2022-10-09T20:38:56.101Z,34.90
2022-10-09T20:41:24.705Z,32.40
2022-10-09T20:43:57.475Z,26.90
2022-10-09T20:46:27.414Z,26.00
2022-10-09T20:48:56.533Z,24.20
2022-10-09T20:51:25.765Z,15.15
2022-10-09T20:54:00.109Z,8.52
2022-10-09T20:56:31.033Z,19.08
2022-10-09T20:59:00.755Z,35.38
2022-10-09T21:01:29.864Z,41.55
2022-10-09T21:03:59.097Z,27.92
2022-10-09T21:06:27.921Z,29.85
2022-10-09T21:08:57.100Z,74.18
2022-10-09T21:11:25.859Z,47.28
2022-10-09T21:13:54.339Z,24.90
2022-10-09T21:16:24.502Z,27.50
2022-10-09T21:19:00.433Z,19.15
2022-10-09T21:21:30.904Z,31.48
2022-10-09T21:24:00.697Z,26.13
2022-10-09T21:26:30.296Z,51.10
2022-10-09T21:28:59.906Z,40.00
2022-10-09T21:31:30.133Z,36.22
2022-10-09T21:34:00.028Z,48.53
2022-10-09T21:36:30.934Z,33.88
2022-10-09T21:38:59.227Z,58.85
2022-10-09T21:41:27.944Z,31.63
2022-10-09T21:43:56.200Z,32.33
2022-10-09T21:46:24.518Z,27.73
2022-10-09T21:48:53.006Z,22.98
2022-10-09T21:51:21.313Z,27.20
2022-10-09T21:53:49.977Z,29.73
2022-10-09T21:56:18.034Z,16.50
2022-10-09T21:58:48.988Z,14.38
2022-10-09T22:01:18.021Z,12.83
2022-10-09T22:03:46.551Z,11.73
2022-10-09T22:06:18.918Z,13.60
2022-10-09T22:08:47.709Z,18.52
2022-10-09T22:11:16.894Z,21.20
2022-10-09T22:13:45.519Z,15.68
2022-10-09T22:16:15.650Z,11.23
2022-10-09T22:18:43.996Z,15.93
2022-10-09T22:21:15.003Z,13.63
2022-10-09T22:23:43.628Z,7.35
2022-10-09T22:26:14.624Z,12.35
2022-10-09T22:28:43.090Z,13.02
2022-10-09T22:31:15.859Z,15.98
2022-10-09T22:33:44.654Z,16.73
2022-10-09T22:36:16.421Z,16.60
2022-10-09T22:38:45.501Z,19.52
2022-10-09T22:41:15.861Z,18.88
2022-10-09T22:43:46.539Z,32.30
2022-10-09T22:46:20.524Z,17.52
2022-10-09T22:48:48.802Z,15.05
2022-10-09T22:51:18.652Z,13.07
2022-10-09T22:53:47.461Z,9.40
2022-10-09T22:56:19.879Z,10.35
2022-10-09T22:58:49.091Z,9.70
2022-10-09T23:01:22.262Z,12.90
2022-10-09T23:03:50.575Z,16.70
2022-10-09T23:06:20.451Z,19.75
2022-10-09T23:08:49.721Z,14.25
2022-10-09T23:11:19.160Z,14.73
2022-10-09T23:13:48.235Z,14.30
2022-10-09T23:16:16.489Z,31.73
2022-10-09T23:18:44.760Z,36.70
2022-10-09T23:21:16.034Z,25.55
2022-10-09T23:23:45.737Z,17.65
2022-10-09T23:26:20.124Z,24.17
2022-10-09T23:28:53.676Z,23.52
2022-10-09T23:31:22.265Z,18.45
2022-10-09T23:33:50.526Z,27.48
2022-10-09T23:36:20.789Z,34.33
2022-10-09T23:38:49.247Z,18.15
2022-10-09T23:41:20.794Z,20.08
2022-10-09T23:43:50.053Z,18.42
2022-10-09T23:46:29.638Z,21.30
2022-10-09T23:48:58.038Z,21.48
2022-10-09T23:51:27.216Z,29.33
2022-10-09T23:53:55.901Z,17.98
2022-10-09T23:56:33.824Z,16.23
2022-10-09T23:59:03.461Z,36.72
